Time;durP1;ratioP1;P1;durP2;ratioP2;P2;SDS_P1;SDS_P2;PMS_P1;PMS_P2;Temp;Humidity;BMP_temperature;BMP_pressure;BME280_temperature;BME280_humidity;BME280_pressure;Samples;Min_cycle;Max_cycle;Signal;HPM_P1;HPM_P2
2022/09/29 00:01:23;;;;;;;0.40;0.40;;;19.00;58.00;;;;;;5086324;28;20304;-62
2022/09/29 00:03:48;;;;;;;0.63;0.63;;;19.00;57.90;;;;;;5086565;28;20083;-60
2022/09/29 00:06:17;;;;;;;0.40;0.40;;;19.00;57.90;;;;;;5086258;28;20040;-60
2022/09/29 00:08:43;;;;;;;0.30;0.30;;;19.00;57.90;;;;;;5086213;28;20024;-61
2022/09/29 00:11:12;;;;;;;0.65;0.35;;;19.00;57.90;;;;;;5086059;28;20051;-61
2022/09/29 00:13:38;;;;;;;0.30;0.30;;;19.00;57.90;;;;;;5086129;28;20013;-60
2022/09/29 00:16:05;;;;;;;2.83;0.50;;;19.00;57.90;;;;;;5086039;28;20312;-61
2022/09/29 00:18:32;;;;;;;0.80;0.52;;;19.00;57.90;;;;;;5086009;28;20125;-61
2022/09/29 00:21:06;;;;;;;0.40;0.30;;;19.00;58.50;;;;;;5085798;28;20267;-60
2022/09/29 00:23:34;;;;;;;2.03;0.40;;;19.00;57.90;;;;;;5085920;28;20230;-60
2022/09/29 00:26:20;;;;;;;0.47;0.40;;;19.00;57.90;;;;;;5085870;28;20349;-60
2022/09/29 00:28:52;;;;;;;0.30;0.30;;;19.00;57.90;;;;;;5085411;28;20036;-60
2022/09/29 00:31:19;;;;;;;0.25;0.25;;;19.00;57.90;;;;;;5085749;28;20020;-61
2022/09/29 00:33:46;;;;;;;0.30;0.30;;;19.00;57.90;;;;;;5085691;28;20023;-60
2022/09/29 00:36:14;;;;;;;0.70;0.32;;;19.00;57.90;;;;;;5085682;28;20024;-60
2022/09/29 00:38:42;;;;;;;0.68;0.38;;;18.90;57.90;;;;;;5085663;28;20019;-61
2022/09/29 00:41:18;;;;;;;0.50;0.50;;;18.90;57.90;;;;;;5085599;28;20074;-61
2022/09/29 00:43:53;;;;;;;0.38;0.30;;;18.90;57.90;;;;;;5085451;28;20312;-62
2022/09/29 00:46:47;;;;;;;0.40;0.40;;;18.90;57.90;;;;;;5085483;28;20221;-61
2022/09/29 00:49:22;;;;;;;0.25;0.25;;;18.90;57.90;;;;;;5085416;28;20027;-61
2022/09/29 00:51:56;;;;;;;0.40;0.40;;;18.90;57.90;;;;;;5085292;28;20032;-60
2022/09/29 00:54:27;;;;;;;0.30;0.30;;;19.00;58.00;;;;;;5085348;28;20013;-62
2022/09/29 00:56:55;;;;;;;0.40;0.40;;;18.90;57.90;;;;;;5085332;28;20013;-61
2022/09/29 00:59:27;;;;;;;0.20;0.20;;;18.90;57.90;;;;;;5085244;28;20039;-61
2022/09/29 01:01:53;;;;;;;0.30;0.30;;;19.00;57.90;;;;;;5085215;28;20031;-61
2022/09/29 01:04:21;;;;;;;0.40;0.40;;;18.90;57.90;;;;;;5085121;28;20058;-61
2022/09/29 01:06:54;;;;;;;0.35;0.35;;;18.90;57.90;;;;;;5085125;28;20040;-61
2022/09/29 01:09:25;;;;;;;0.47;0.47;;;18.90;57.90;;;;;;5085037;28;20029;-61
2022/09/29 01:11:56;;;;;;;0.40;0.38;;;18.90;57.90;;;;;;5084937;28;20025;-61
2022/09/29 01:14:23;;;;;;;0.30;0.30;;;18.90;57.90;;;;;;5084960;28;20079;-61
2022/09/29 01:16:49;;;;;;;0.40;0.40;;;18.90;57.90;;;;;;5084881;28;20346;-61
2022/09/29 01:19:42;;;;;;;0.50;0.50;;;18.90;57.90;;;;;;5084833;28;20024;-61
2022/09/29 01:22:28;;;;;;;0.40;0.40;;;18.90;58.00;;;;;;5084658;28;20049;-61
2022/09/29 01:25:18;;;;;;;0.30;0.22;;;18.90;57.90;;;;;;5084150;28;20095;-61
2022/09/29 01:28:09;;;;;;;0.82;0.30;;;18.90;57.90;;;;;;5084670;28;20083;-60
2022/09/29 01:30:48;;;;;;;0.50;0.50;;;18.90;57.90;;;;;;5084544;28;20078;-61
2022/09/29 01:33:42;;;;;;;0.57;0.52;;;18.90;58.00;;;;;;5084583;28;20018;-61
2022/09/29 01:36:23;;;;;;;0.50;0.40;;;18.90;57.90;;;;;;5084486;28;20012;-61
2022/09/29 01:39:12;;;;;;;0.75;0.70;;;18.90;58.00;;;;;;5084468;28;20084;-62
2022/09/29 01:41:52;;;;;;;0.20;0.20;;;18.90;58.00;;;;;;5084404;28;20066;-60
2022/09/29 01:44:39;;;;;;;0.30;0.30;;;18.90;58.00;;;;;;5084390;28;20309;-60
2022/09/29 01:47:10;;;;;;;0.30;0.30;;;18.90;57.90;;;;;;5084313;28;20020;-61
2022/09/29 01:49:42;;;;;;;0.50;0.40;;;18.90;57.90;;;;;;5084311;28;20020;-61
2022/09/29 01:52:12;;;;;;;0.30;0.30;;;18.90;58.00;;;;;;5084131;28;20027;-61
2022/09/29 01:54:46;;;;;;;0.30;0.30;;;18.90;57.90;;;;;;5083708;28;20047;-60
2022/09/29 01:57:30;;;;;;;0.40;0.40;;;18.90;57.90;;;;;;5084092;28;20038;-60
2022/09/29 02:00:10;;;;;;;0.47;0.43;;;18.90;58.00;;;;;;5084065;28;20016;-60
2022/09/29 02:02:43;;;;;;;0.25;0.20;;;18.90;58.00;;;;;;5084035;28;20024;-61
2022/09/29 02:05:17;;;;;;;0.45;0.45;;;18.90;58.00;;;;;;5083965;28;20332;-61
2022/09/29 02:07:45;;;;;;;0.20;0.20;;;18.90;58.00;;;;;;5083981;28;20016;-61
2022/09/29 02:10:31;;;;;;;0.40;0.40;;;18.90;57.90;;;;;;5083922;28;20047;-61
2022/09/29 02:12:58;;;;;;;0.60;0.60;;;18.90;57.90;;;;;;5083858;28;20020;-60
2022/09/29 02:15:29;;;;;;;0.40;0.40;;;18.90;58.00;;;;;;5083851;28;20008;-61
2022/09/29 02:18:01;;;;;;;0.40;0.40;;;18.90;57.90;;;;;;5083825;28;20068;-62
2022/09/29 02:20:26;;;;;;;0.70;0.40;;;18.90;58.00;;;;;;5083802;28;20040;-61
2022/09/29 02:22:54;;;;;;;0.40;0.40;;;18.90;58.00;;;;;;5084015;28;20051;-61
2022/09/29 02:25:20;;;;;;;0.32;0.30;;;18.90;58.00;;;;;;5083721;28;20305;-61
2022/09/29 02:27:49;;;;;;;0.30;0.30;;;18.90;58.00;;;;;;5083654;28;20134;-61
2022/09/29 02:30:15;;;;;;;0.45;0.43;;;18.90;58.00;;;;;;5083691;28;20043;-61
2022/09/29 02:32:41;;;;;;;0.30;0.30;;;18.90;58.00;;;;;;5083522;28;20020;-60
2022/09/29 02:35:10;;;;;;;0.50;0.50;;;18.90;58.00;;;;;;5083596;28;20297;-61
2022/09/29 02:38:02;;;;;;;0.40;0.40;;;18.90;58.00;;;;;;5065655;28;20023;-60
2022/09/29 02:40:31;;;;;;;0.30;0.30;;;18.80;58.00;;;;;;5055117;28;20028;-62
2022/09/29 02:43:12;;;;;;;0.30;0.30;;;18.90;58.00;;;;;;5083511;28;20210;-61
2022/09/29 02:45:49;;;;;;;0.20;0.20;;;18.80;58.00;;;;;;5083532;28;20313;-60
2022/09/29 02:48:18;;;;;;;0.30;0.30;;;18.80;58.00;;;;;;5083517;28;20034;-61
2022/09/29 02:50:52;;;;;;;;;;;18.90;58.00;;;;;;5083771;28;20020;-61
2022/09/29 02:53:44;;;;;;;0.32;0.32;;;18.90;58.10;;;;;;5083419;28;20132;-62
2022/09/29 02:56:26;;;;;;;0.40;0.38;;;18.90;58.00;;;;;;5075049;28;20318;-60
2022/09/29 02:59:05;;;;;;;0.47;0.47;;;18.90;58.00;;;;;;5083390;28;20320;-61
2022/09/29 03:01:33;;;;;;;0.40;0.40;;;18.90;58.00;;;;;;5083376;28;20024;-61
2022/09/29 03:03:59;;;;;;;0.47;0.47;;;18.90;58.00;;;;;;5083306;28;20019;-61
2022/09/29 03:06:26;;;;;;;1.65;0.30;;;18.90;58.00;;;;;;5084013;28;20016;-61
2022/09/29 03:08:52;;;;;;;0.30;0.30;;;18.80;58.00;;;;;;5087374;28;20015;-61
2022/09/29 03:11:18;;;;;;;0.45;0.40;;;18.80;58.00;;;;;;5087250;28;20080;-62
2022/09/29 03:13:43;;;;;;;0.47;0.40;;;18.80;58.00;;;;;;5087285;28;20021;-61
2022/09/29 03:16:09;;;;;;;0.40;0.40;;;18.80;58.00;;;;;;5087220;28;20055;-61
2022/09/29 03:18:35;;;;;;;0.50;0.50;;;18.90;58.00;;;;;;5087160;28;20338;-62
2022/09/29 03:21:01;;;;;;;0.73;0.40;;;18.80;58.00;;;;;;5086980;28;20150;-62
2022/09/29 03:23:26;;;;;;;0.65;0.50;;;18.80;58.00;;;;;;5087073;28;20025;-62
2022/09/29 03:25:52;;;;;;;0.38;0.38;;;18.80;58.00;;;;;;5087055;28;20327;-61
2022/09/29 03:28:18;;;;;;;0.60;0.60;;;18.80;58.00;;;;;;5086981;28;20073;-61
2022/09/29 03:30:46;;;;;;;0.35;0.35;;;18.80;58.10;;;;;;5086802;28;20194;-62
2022/09/29 03:33:12;;;;;;;0.57;0.50;;;18.80;58.10;;;;;;5086841;28;20016;-61
2022/09/29 03:35:38;;;;;;;0.70;0.60;;;18.80;58.00;;;;;;5086810;28;20020;-60
2022/09/29 03:38:03;;;;;;;0.50;0.43;;;18.80;58.00;;;;;;5086789;28;20016;-62
2022/09/29 03:40:29;;;;;;;0.47;0.43;;;18.80;58.00;;;;;;5068910;28;20023;-61
2022/09/29 03:42:55;;;;;;;0.30;0.30;;;18.80;58.00;;;;;;5086679;28;20028;-61
2022/09/29 03:45:20;;;;;;;1.40;0.80;;;18.80;58.10;;;;;;5086933;28;20025;-61
2022/09/29 03:47:46;;;;;;;0.47;0.47;;;18.80;58.10;;;;;;5086589;28;20054;-61
2022/09/29 03:50:12;;;;;;;0.30;0.30;;;18.80;58.10;;;;;;5086551;28;20083;-61
2022/09/29 03:52:38;;;;;;;0.30;0.30;;;18.80;58.10;;;;;;5086423;28;20027;-60
2022/09/29 03:55:04;;;;;;;0.40;0.35;;;18.80;58.10;;;;;;5068581;28;20040;-61
2022/09/29 03:57:29;;;;;;;0.30;0.30;;;18.80;58.10;;;;;;5086364;28;20012;-61
2022/09/29 03:59:56;;;;;;;0.75;0.60;;;18.80;58.10;;;;;;5086388;28;20085;-61
2022/09/29 04:02:22;;;;;;;0.40;0.40;;;18.80;58.10;;;;;;5086334;28;20300;-61
2022/09/29 04:04:47;;;;;;;0.43;0.43;;;18.80;58.10;;;;;;5086327;28;20035;-61
2022/09/29 04:07:13;;;;;;;0.50;0.47;;;18.80;58.00;;;;;;5086270;28;20016;-61
2022/09/29 04:09:39;;;;;;;0.55;0.50;;;18.80;58.00;;;;;;5086172;28;20021;-61
2022/09/29 04:12:04;;;;;;;0.40;0.38;;;18.80;58.10;;;;;;5086074;28;20020;-60
2022/09/29 04:14:30;;;;;;;0.50;0.50;;;18.80;58.10;;;;;;5086164;28;20016;-61
2022/09/29 04:16:56;;;;;;;0.40;0.40;;;18.80;58.10;;;;;;5085719;28;20200;-61
2022/09/29 04:19:21;;;;;;;0.43;0.43;;;18.80;58.10;;;;;;5085969;28;20020;-61
2022/09/29 04:21:47;;;;;;;0.52;0.28;;;18.80;58.20;;;;;;5085891;28;20039;-60
2022/09/29 04:24:13;;;;;;;0.30;0.30;;;18.80;58.10;;;;;;5085895;28;20025;-61
2022/09/29 04:26:38;;;;;;;0.40;0.32;;;18.80;58.10;;;;;;5085903;28;20084;-60
2022/09/29 04:29:05;;;;;;;0.30;0.25;;;18.80;58.00;;;;;;5086085;28;20024;-61
2022/09/29 04:31:31;;;;;;;0.30;0.30;;;18.80;58.10;;;;;;5085964;28;20016;-61
2022/09/29 04:33:56;;;;;;;0.68;0.32;;;18.80;58.10;;;;;;5085712;28;20220;-62
2022/09/29 04:36:22;;;;;;;0.52;0.50;;;18.80;58.10;;;;;;5085742;28;20009;-60
2022/09/29 04:38:50;;;;;;;0.70;0.70;;;18.80;58.10;;;;;;5085631;28;20365;-61
2022/09/29 04:41:16;;;;;;;0.30;0.30;;;18.80;58.10;;;;;;5085865;28;20031;-60
2022/09/29 04:43:42;;;;;;;0.40;0.40;;;18.80;58.10;;;;;;5085564;28;20028;-60
2022/09/29 04:46:08;;;;;;;0.40;0.30;;;18.80;58.10;;;;;;5085501;28;20244;-61
2022/09/29 04:48:35;;;;;;;0.50;0.50;;;18.80;58.20;;;;;;5085789;28;20199;-61
2022/09/29 04:51:01;;;;;;;0.45;0.45;;;18.70;58.10;;;;;;5085349;28;20020;-61
2022/09/29 04:53:27;;;;;;;0.40;0.40;;;18.80;58.10;;;;;;5085388;28;20371;-62
2022/09/29 04:55:53;;;;;;;0.52;0.45;;;18.80;58.10;;;;;;5085341;28;20024;-61
2022/09/29 04:58:19;;;;;;;0.45;0.45;;;18.80;58.10;;;;;;5085283;28;20024;-61
2022/09/29 05:00:45;;;;;;;0.32;0.32;;;18.80;58.10;;;;;;5085247;28;20008;-61
2022/09/29 05:03:11;;;;;;;0.30;0.30;;;18.70;58.10;;;;;;5067373;28;20030;-61
2022/09/29 05:05:36;;;;;;;0.35;0.35;;;18.80;58.20;;;;;;5085189;28;20017;-61
2022/09/29 05:08:03;;;;;;;0.30;0.30;;;18.80;58.20;;;;;;5085130;28;20040;-61
2022/09/29 05:10:30;;;;;;;0.45;0.45;;;18.80;58.20;;;;;;5067232;28;20020;-61
2022/09/29 05:12:55;;;;;;;0.40;0.40;;;18.80;58.20;;;;;;5084932;28;20057;-61
2022/09/29 05:15:21;;;;;;;0.30;0.30;;;18.80;58.20;;;;;;5084971;28;20017;-61
2022/09/29 05:17:47;;;;;;;0.40;0.40;;;18.80;58.20;;;;;;5084915;28;20082;-61
2022/09/29 05:20:15;;;;;;;0.25;0.22;;;18.80;58.20;;;;;;5084684;28;20039;-61
2022/09/29 05:22:41;;;;;;;0.45;0.45;;;18.80;58.20;;;;;;5084877;28;20246;-62
2022/09/29 05:25:07;;;;;;;0.47;0.47;;;18.70;58.10;;;;;;5084764;28;20020;-61
2022/09/29 05:27:37;;;;;;;0.30;0.30;;;18.80;58.10;;;;;;5084711;28;20370;-62
2022/09/29 05:30:03;;;;;;;0.43;0.40;;;18.70;58.10;;;;;;5084009;28;20055;-61
2022/09/29 05:32:29;;;;;;;0.40;0.40;;;18.80;58.20;;;;;;5084407;28;20017;-61
2022/09/29 05:34:55;;;;;;;0.30;0.30;;;18.80;58.10;;;;;;5084557;28;20043;-62
2022/09/29 05:37:20;;;;;;;0.43;0.43;;;18.70;58.10;;;;;;5084525;28;20099;-60
2022/09/29 05:39:46;;;;;;;0.30;0.20;;;18.80;58.20;;;;;;5084440;28;20035;-61
2022/09/29 05:42:12;;;;;;;0.75;0.50;;;18.80;58.20;;;;;;5084411;28;20043;-61
2022/09/29 05:44:38;;;;;;;0.60;0.60;;;18.80;58.10;;;;;;5084349;28;20346;-61
2022/09/29 05:47:03;;;;;;;0.38;0.30;;;18.80;58.20;;;;;;5084303;28;20040;-61
2022/09/29 05:49:31;;;;;;;0.30;0.30;;;18.70;58.10;;;;;;5084244;28;20021;-60
2022/09/29 05:51:57;;;;;;;0.40;0.40;;;18.80;58.20;;;;;;5084205;28;20043;-61
2022/09/29 05:54:23;;;;;;;0.32;0.32;;;18.70;58.10;;;;;;5084172;28;20118;-61
2022/09/29 05:56:48;;;;;;;0.35;0.35;;;18.70;58.10;;;;;;5084405;28;20057;-61
2022/09/29 05:59:14;;;;;;;0.60;0.60;;;18.80;58.20;;;;;;5083909;28;20012;-61
2022/09/29 06:01:40;;;;;;;0.43;0.38;;;18.80;58.10;;;;;;5083764;28;20021;-61
2022/09/29 06:04:05;;;;;;;0.30;0.30;;;18.80;58.20;;;;;;5083668;28;20080;-61
2022/09/29 06:06:31;;;;;;;0.40;0.40;;;18.80;58.20;;;;;;5083716;28;20024;-61
2022/09/29 06:08:57;;;;;;;1.17;0.43;;;18.80;58.20;;;;;;5083927;28;20118;-61
2022/09/29 06:11:30;;;;;;;0.35;0.35;;;18.70;58.10;;;;;;5083818;28;20031;-61
2022/09/29 06:13:56;;;;;;;0.50;0.32;;;18.70;58.10;;;;;;5083878;28;20193;-61
2022/09/29 06:16:24;;;;;;;0.32;0.32;;;18.80;58.10;;;;;;5083809;28;20024;-62
2022/09/29 06:18:50;;;;;;;0.15;0.15;;;18.80;58.20;;;;;;5083786;28;20020;-60
2022/09/29 06:21:19;;;;;;;0.30;0.30;;;18.70;58.10;;;;;;5083563;28;20044;-62
2022/09/29 06:23:45;;;;;;;0.30;0.30;;;18.80;58.20;;;;;;5083775;28;20028;-61
2022/09/29 06:26:13;;;;;;;0.40;0.40;;;18.70;58.20;;;;;;5083727;28;20077;-61
2022/09/29 06:28:39;;;;;;;0.70;0.70;;;18.70;58.10;;;;;;5083651;28;20051;-61
2022/09/29 06:31:09;;;;;;;0.30;0.30;;;18.70;58.10;;;;;;5083569;28;20016;-61
2022/09/29 06:33:35;;;;;;;0.30;0.30;;;18.70;58.10;;;;;;5083629;28;20051;-61
2022/09/29 06:38:54;;;;;;;0.32;0.32;;;18.70;58.10;;;;;;5083606;28;20347;-60
2022/09/29 06:41:20;;;;;;;0.75;0.50;;;18.80;58.20;;;;;;5083354;28;20255;-60
2022/09/29 06:43:46;;;;;;;0.30;0.30;;;18.70;58.10;;;;;;5083536;28;20016;-60
2022/09/29 06:46:12;;;;;;;0.22;0.22;;;18.80;58.20;;;;;;5083496;28;20021;-61
2022/09/29 06:48:37;;;;;;;0.43;0.43;;;18.70;58.10;;;;;;5083484;28;20347;-61
2022/09/29 06:51:07;;;;;;;0.40;0.40;;;18.80;58.20;;;;;;5083375;28;20032;-61
2022/09/29 06:53:33;;;;;;;0.40;0.40;;;18.80;58.10;;;;;;5083724;28;20016;-61
2022/09/29 06:56:01;;;;;;;0.30;0.28;;;18.80;58.10;;;;;;5083420;28;20035;-60
2022/09/29 06:58:27;;;;;;;0.20;0.20;;;18.80;58.10;;;;;;5083400;28;20008;-62
2022/09/29 07:00:54;;;;;;;0.65;0.40;;;18.70;58.00;;;;;;5083351;28;20016;-61
2022/09/29 07:03:20;;;;;;;0.30;0.30;;;18.80;58.10;;;;;;5083293;28;20023;-61
2022/09/29 07:05:46;;;;;;;0.30;0.30;;;18.70;58.00;;;;;;5083259;28;20023;-61
2022/09/29 07:08:12;;;;;;;0.40;0.40;;;18.80;58.00;;;;;;5083243;28;20017;-61
2022/09/29 07:10:37;;;;;;;0.40;0.40;;;18.80;58.00;;;;;;5083304;28;20212;-61
2022/09/29 07:13:04;;;;;;;0.50;0.50;;;18.80;58.00;;;;;;5083165;28;20020;-61
2022/09/29 07:15:30;;;;;;;0.30;0.30;;;18.70;58.00;;;;;;5083447;28;20044;-61
2022/09/29 07:18:00;;;;;;;0.32;0.28;;;18.70;58.00;;;;;;5083178;28;20013;-62
2022/09/29 07:20:27;;;;;;;0.20;0.20;;;18.80;58.10;;;;;;5083013;28;20099;-61
2022/09/29 07:22:54;;;;;;;0.30;0.30;;;18.80;58.00;;;;;;5083115;28;20047;-61
2022/09/29 07:25:19;;;;;;;0.40;0.40;;;18.80;58.00;;;;;;5083071;28;20024;-61
2022/09/29 07:27:46;;;;;;;0.47;0.35;;;18.80;58.00;;;;;;5083119;28;20047;-61
2022/09/29 07:30:12;;;;;;;0.20;0.20;;;18.80;58.00;;;;;;5083059;28;20024;-61
2022/09/29 07:32:37;;;;;;;0.50;0.40;;;18.80;57.90;;;;;;5082938;28;20066;-60
2022/09/29 07:35:04;;;;;;;0.20;0.20;;;18.80;58.00;;;;;;5083033;28;20017;-62
2022/09/29 07:37:30;;;;;;;0.35;0.35;;;18.70;57.90;;;;;;5082976;28;20024;-61
2022/09/29 07:39:56;;;;;;;0.45;0.45;;;18.80;58.00;;;;;;5082966;28;20021;-61
2022/09/29 07:42:22;;;;;;;0.50;0.50;;;18.80;57.90;;;;;;5082947;28;20044;-61
2022/09/29 07:44:47;;;;;;;0.30;0.30;;;18.80;57.90;;;;;;5082950;28;20374;-61
2022/09/29 07:47:13;;;;;;;0.40;0.40;;;18.80;57.90;;;;;;5082948;28;20411;-61
2022/09/29 07:49:40;;;;;;;0.40;0.40;;;18.80;57.80;;;;;;5082873;28;20024;-61
2022/09/29 07:52:06;;;;;;;0.40;0.40;;;18.80;57.90;;;;;;5082940;28;20093;-60
2022/09/29 07:54:32;;;;;;;0.30;0.30;;;18.80;57.80;;;;;;5086498;28;20315;-61
2022/09/29 07:56:59;;;;;;;0.30;0.30;;;18.80;57.80;;;;;;5086432;28;20024;-61
2022/09/29 07:59:26;;;;;;;0.45;0.28;;;18.80;57.90;;;;;;5086422;28;20017;-60
2022/09/29 08:01:52;;;;;;;0.30;0.30;;;18.80;57.90;;;;;;5086356;28;20042;-61
2022/09/29 08:04:18;;;;;;;0.57;0.30;;;18.80;57.90;;;;;;5086357;28;20029;-61
2022/09/29 08:06:45;;;;;;;0.40;0.38;;;18.80;57.90;;;;;;5086294;28;20043;-62
2022/09/29 08:09:11;;;;;;;0.40;0.40;;;18.80;57.90;;;;;;5086208;28;20024;-60
2022/09/29 08:11:39;;;;;;;0.50;0.50;;;18.80;57.90;;;;;;5086107;28;20044;-61
2022/09/29 08:14:05;;;;;;;0.32;0.32;;;18.80;57.90;;;;;;5086035;28;20066;-61
2022/09/29 08:16:31;;;;;;;0.52;0.52;;;18.80;57.90;;;;;;5086078;28;20369;-61
2022/09/29 08:18:58;;;;;;;0.25;0.20;;;18.80;57.90;;;;;;5086054;28;20040;-60
2022/09/29 08:21:24;;;;;;;0.30;0.30;;;18.80;57.90;;;;;;5085844;28;20040;-60
2022/09/29 08:23:49;;;;;;;0.65;0.40;;;18.80;57.90;;;;;;5085928;28;20029;-61
2022/09/29 08:26:17;;;;;;;0.50;0.50;;;18.80;57.90;;;;;;5085950;28;20024;-61
2022/09/29 08:28:44;;;;;;;0.30;0.30;;;18.80;57.80;;;;;;5085870;28;20026;-61
2022/09/29 08:31:19;;;;;;;0.47;0.47;;;18.80;57.90;;;;;;5085689;28;20056;-61
2022/09/29 08:33:46;;;;;;;0.43;0.35;;;18.80;57.80;;;;;;5085840;28;20024;-60
2022/09/29 08:36:15;;;;;;;0.20;0.20;;;18.90;57.80;;;;;;5085684;28;20009;-61
2022/09/29 08:38:45;;;;;;;0.95;0.28;;;18.90;57.70;;;;;;5085675;28;20308;-61
2022/09/29 08:41:26;;;;;;;0.52;0.40;;;18.90;57.60;;;;;;5085622;28;20028;-60
2022/09/29 08:43:57;;;;;;;0.30;0.30;;;18.90;57.70;;;;;;5085579;28;20058;-62
2022/09/29 08:46:37;;;;;;;0.20;0.20;;;18.90;57.80;;;;;;5067682;28;20017;-61
2022/09/29 08:49:10;;;;;;;0.30;0.30;;;18.90;57.80;;;;;;5085550;28;20016;-61
2022/09/29 08:51:52;;;;;;;0.43;0.30;;;18.90;57.80;;;;;;5085405;28;20075;-61
2022/09/29 08:54:32;;;;;;;0.30;0.30;;;18.90;57.80;;;;;;5085438;28;20009;-61
2022/09/29 08:57:00;;;;;;;0.30;0.30;;;18.90;57.60;;;;;;5085674;28;20015;-61
2022/09/29 08:59:28;;;;;;;0.30;0.30;;;19.00;57.60;;;;;;5085275;28;20024;-61
2022/09/29 09:02:26;;;;;;;0.30;0.30;;;18.90;57.50;;;;;;5085240;28;20235;-61
2022/09/29 09:04:57;;;;;;;0.20;0.20;;;18.90;57.50;;;;;;5050418;28;20047;-62
2022/09/29 09:07:46;;;;;;;0.40;0.40;;;18.90;57.60;;;;;;5085115;28;20024;-61
2022/09/29 09:10:26;;;;;;;1.85;0.20;;;18.90;57.60;;;;;;5085078;28;20077;-61
2022/09/29 09:13:03;;;;;;;0.40;0.40;;;18.90;57.70;;;;;;5084939;28;20091;-60
2022/09/29 09:16:07;;;;;;;0.43;0.40;;;18.90;57.60;;;;;;5084994;28;20027;-60
2022/09/29 09:18:59;;;;;;;0.30;0.30;;;19.00;57.70;;;;;;5050998;28;20032;-61
2022/09/29 09:21:45;;;;;;;0.30;0.30;;;18.90;57.70;;;;;;5084716;28;20387;-62
2022/09/29 09:24:20;;;;;;;0.35;0.35;;;18.90;57.70;;;;;;5084775;28;20032;-60
2022/09/29 09:26:47;;;;;;;0.30;0.30;;;18.90;57.80;;;;;;5084751;28;20223;-61
2022/09/29 09:29:34;;;;;;;0.50;0.50;;;18.90;57.70;;;;;;5084944;28;20044;-60
2022/09/29 09:32:11;;;;;;;0.80;0.50;;;18.90;57.70;;;;;;5084573;28;20339;-60
2022/09/29 09:34:40;;;;;;;0.30;0.30;;;18.90;57.70;;;;;;5066719;28;20023;-61
2022/09/29 09:37:10;;;;;;;0.30;0.20;;;19.00;57.60;;;;;;5084506;28;20039;-60
2022/09/29 09:39:41;;;;;;;0.20;0.20;;;19.00;57.60;;;;;;5084767;28;20020;-61
2022/09/29 09:42:16;;;;;;;0.57;0.30;;;18.90;57.70;;;;;;5084424;28;20025;-61
2022/09/29 09:44:48;;;;;;;0.40;0.40;;;19.00;57.70;;;;;;5084348;28;20074;-60
2022/09/29 09:47:36;;;;;;;0.45;0.43;;;19.00;57.70;;;;;;5084342;28;20082;-60
2022/09/29 09:50:14;;;;;;;0.30;0.30;;;19.00;57.70;;;;;;5084236;28;20016;-61
2022/09/29 09:52:51;;;;;;;0.30;0.30;;;19.00;57.60;;;;;;5084181;28;20036;-60
2022/09/29 09:55:23;;;;;;;0.60;0.30;;;19.00;57.60;;;;;;5084220;28;20300;-60
2022/09/29 09:58:24;;;;;;;0.30;0.30;;;19.00;57.60;;;;;;5066307;28;20208;-61
2022/09/29 10:01:03;;;;;;;0.38;0.30;;;19.00;57.60;;;;;;5084088;28;20061;-61
2022/09/29 10:03:30;;;;;;;0.30;0.30;;;19.00;57.50;;;;;;5084047;28;20012;-61
2022/09/29 10:05:56;;;;;;;0.47;0.40;;;19.10;57.50;;;;;;5083964;28;20027;-61
2022/09/29 10:08:37;;;;;;;0.40;0.40;;;19.00;57.50;;;;;;5083889;28;20206;-60
2022/09/29 10:11:04;;;;;;;0.28;0.28;;;19.00;57.60;;;;;;5084166;28;20016;-61
2022/09/29 10:13:31;;;;;;;0.30;0.30;;;19.00;57.70;;;;;;5083840;28;20058;-62
2022/09/29 10:16:22;;;;;;;0.40;0.40;;;19.00;57.70;;;;;;5083718;28;20031;-61
2022/09/29 10:18:52;;;;;;;0.50;0.50;;;19.00;57.70;;;;;;5083786;28;20054;-61
2022/09/29 10:21:37;;;;;;;0.35;0.35;;;19.00;57.70;;;;;;5083677;28;20041;-61
2022/09/29 10:24:07;;;;;;;0.38;0.35;;;19.10;57.60;;;;;;5083717;28;20093;-61
2022/09/29 10:26:40;;;;;;;0.35;0.30;;;19.10;57.60;;;;;;5083923;28;20020;-61
2022/09/29 10:29:24;;;;;;;0.30;0.30;;;19.10;57.60;;;;;;5083945;28;20039;-61
2022/09/29 10:31:59;;;;;;;0.30;0.30;;;19.10;57.50;;;;;;5083503;28;20044;-61
2022/09/29 10:34:25;;;;;;;0.30;0.30;;;19.10;57.50;;;;;;5083614;28;20238;-61
2022/09/29 10:36:57;;;;;;;0.30;0.28;;;19.10;57.40;;;;;;5083568;28;20040;-61
2022/09/29 10:39:39;;;;;;;0.47;0.30;;;19.20;57.40;;;;;;5083547;28;20371;-61
2022/09/29 10:42:23;;;;;;;0.30;0.30;;;19.20;57.50;;;;;;5083863;28;20020;-62
2022/09/29 10:44:52;;;;;;;0.43;0.40;;;19.20;57.50;;;;;;5083567;28;20020;-61
2022/09/29 10:47:18;;;;;;;;;;;19.20;57.50;;;;;;5083895;28;20021;-61
2022/09/29 10:49:44;;;;;;;0.30;0.30;;;19.20;57.50;;;;;;5083375;28;20081;-60
2022/09/29 10:52:23;;;;;;;0.30;0.30;;;19.20;57.60;;;;;;5083381;28;20084;-60
2022/09/29 10:54:58;;;;;;;0.20;0.20;;;19.20;57.60;;;;;;5083387;28;20017;-60
2022/09/29 10:57:29;;;;;;;0.30;0.30;;;19.10;57.70;;;;;;5083402;28;20074;-61
2022/09/29 10:59:57;;;;;;;0.13;0.10;;;19.10;57.70;;;;;;5083387;28;20021;-61
2022/09/29 11:02:26;;;;;;;0.20;0.20;;;19.10;57.80;;;;;;5083326;28;20024;-61
2022/09/29 11:04:55;;;;;;;0.43;0.43;;;19.10;57.70;;;;;;5083326;28;20016;-61
2022/09/29 11:07:21;;;;;;;0.20;0.20;;;19.10;57.70;;;;;;5083758;28;20039;-61
2022/09/29 11:09:49;;;;;;;0.38;0.38;;;19.10;57.60;;;;;;5083282;28;20092;-61
2022/09/29 11:12:38;;;;;;;0.37;0.37;;;19.20;57.70;;;;;;5083156;28;20220;-61
2022/09/29 11:15:23;;;;;;;0.30;0.30;;;19.20;57.60;;;;;;5083248;28;20039;-61
2022/09/29 11:17:50;;;;;;;0.40;0.40;;;19.20;57.60;;;;;;5083212;28;20008;-61
2022/09/29 11:20:17;;;;;;;0.40;0.40;;;19.20;57.60;;;;;;5083193;28;20273;-62
2022/09/29 11:23:37;;;;;;;0.38;0.38;;;19.20;57.60;;;;;;5083187;28;20058;-61
2022/09/29 11:26:14;;;;;;;0.30;0.30;;;19.20;57.70;;;;;;5021467;28;20233;-62
2022/09/29 11:29:19;;;;;;;0.30;0.30;;;19.20;57.80;;;;;;5078314;28;20092;-61
2022/09/29 11:32:11;;;;;;;0.20;0.20;;;19.10;57.80;;;;;;5032437;28;20029;-61
2022/09/29 11:34:52;;;;;;;0.40;0.40;;;19.10;57.90;;;;;;5086954;28;20304;-61
2022/09/29 11:37:33;;;;;;;0.40;0.40;;;19.10;58.00;;;;;;5086866;28;20091;-62
2022/09/29 11:40:11;;;;;;;0.50;0.32;;;19.10;58.00;;;;;;5086817;28;20020;-61
2022/09/29 11:42:44;;;;;;;0.65;0.40;;;19.10;58.00;;;;;;5086347;28;20335;-60
2022/09/29 11:45:16;;;;;;;0.38;0.38;;;19.10;58.00;;;;;;5086725;28;20051;-61
2022/09/29 11:47:43;;;;;;;0.32;0.32;;;19.10;57.90;;;;;;5086692;28;20024;-61
2022/09/29 11:50:12;;;;;;;0.32;0.32;;;19.10;57.90;;;;;;5086617;28;20175;-60
2022/09/29 11:52:56;;;;;;;;;;;19.10;58.00;;;;;;5086944;28;20212;-61
2022/09/29 11:55:44;;;;;;;0.32;0.30;;;19.10;58.00;;;;;;5086488;28;19901;-61
2022/09/29 11:58:30;;;;;;;0.40;0.40;;;19.10;58.10;;;;;;5068676;28;20239;-61
2022/09/29 12:01:07;;;;;;;0.38;0.30;;;19.10;58.10;;;;;;5086418;28;20328;-60
2022/09/29 12:03:59;;;;;;;0.30;0.30;;;19.10;58.10;;;;;;5086451;28;20406;-60
2022/09/29 12:06:43;;;;;;;0.32;0.32;;;19.10;58.10;;;;;;5086594;28;20197;-61
2022/09/29 12:09:38;;;;;;;0.30;0.30;;;19.10;58.10;;;;;;5086299;28;20120;-61
2022/09/29 12:12:12;;;;;;;0.28;0.28;;;19.10;58.00;;;;;;5086207;28;20043;-61
2022/09/29 12:14:52;;;;;;;0.40;0.38;;;19.10;58.10;;;;;;5086220;28;20040;-60
2022/09/29 12:17:19;;;;;;;0.20;0.20;;;19.10;58.10;;;;;;5086201;28;20216;-60
2022/09/29 12:19:56;;;;;;;0.40;0.40;;;19.10;58.10;;;;;;5086103;28;20043;-61
2022/09/29 12:22:22;;;;;;;0.20;0.20;;;19.10;58.00;;;;;;5066006;28;20048;-61
2022/09/29 12:24:55;;;;;;;0.40;0.40;;;19.10;58.00;;;;;;5065966;28;20319;-60
2022/09/29 12:27:38;;;;;;;0.40;0.40;;;19.10;57.90;;;;;;5065933;28;20029;-62
2022/09/29 12:30:28;;;;;;;0.40;0.32;;;19.10;58.00;;;;;;5065896;28;20304;-61
2022/09/29 12:33:07;;;;;;;0.25;0.25;;;19.10;57.90;;;;;;5065781;28;20025;-61
2022/09/29 12:35:32;;;;;;;;;;;19.10;57.90;;;;;;5066275;28;20032;-61
2022/09/29 12:38:21;;;;;;;0.20;0.20;;;19.10;57.90;;;;;;5065431;28;19901;-61
2022/09/29 12:41:12;;;;;;;0.40;0.40;;;19.10;57.90;;;;;;5065721;28;20309;-62
2022/09/29 12:43:53;;;;;;;0.28;0.28;;;19.10;57.80;;;;;;5065631;28;20018;-61
2022/09/29 12:46:38;;;;;;;0.50;0.40;;;19.20;57.80;;;;;;5064459;28;20020;-61
2022/09/29 12:49:07;;;;;;;0.20;0.20;;;19.20;57.70;;;;;;5065587;28;20148;-61
2022/09/29 12:51:39;;;;;;;0.30;0.30;;;19.30;57.70;;;;;;5065402;28;20024;-61
2022/09/29 12:54:28;;;;;;;0.45;0.45;;;19.20;57.60;;;;;;5065471;28;20016;-62
2022/09/29 12:57:04;;;;;;;0.30;0.30;;;19.20;57.60;;;;;;5065419;28;20022;-62
2022/09/29 12:59:39;;;;;;;0.50;0.30;;;19.20;57.70;;;;;;5065687;28;20044;-63
2022/09/29 13:02:37;;;;;;;0.17;0.17;;;19.20;57.80;;;;;;5065350;28;20027;-61
2022/09/29 13:05:31;;;;;;;0.20;0.20;;;19.10;57.80;;;;;;5065158;28;20106;-61
2022/09/29 13:08:01;;;;;;;0.43;0.40;;;19.10;58.00;;;;;;5065198;28;20020;-60
2022/09/29 13:10:46;;;;;;;0.28;0.28;;;19.10;58.00;;;;;;5065128;28;20012;-62
2022/09/29 13:13:11;;;;;;;0.68;0.30;;;19.10;57.90;;;;;;5064967;28;20024;-61
2022/09/29 13:16:08;;;;;;;0.40;0.40;;;19.10;58.00;;;;;;5064982;28;20013;-61